createdAt,value
2022-09-10T00:02:01.996Z,100.00
2022-09-10T00:04:28.898Z,100.00
2022-09-10T00:06:55.776Z,100.00
2022-09-10T00:09:23.258Z,100.00
2022-09-10T00:11:50.128Z,100.00
2022-09-10T00:14:23.969Z,100.00
2022-09-10T00:16:51.254Z,100.00
2022-09-10T00:19:18.472Z,100.00
2022-09-10T00:21:45.575Z,100.00
2022-09-10T00:24:12.724Z,100.00
2022-09-10T00:26:40.066Z,100.00
2022-09-10T00:29:09.714Z,100.00
2022-09-10T00:31:37.645Z,100.00
2022-09-10T00:34:05.831Z,100.00
2022-09-10T00:36:36.660Z,100.00
2022-09-10T00:39:06.853Z,100.00
2022-09-10T00:41:34.942Z,100.00
2022-09-10T00:44:07.483Z,100.00
2022-09-10T00:46:50.972Z,100.00
2022-09-10T00:49:31.464Z,100.00
2022-09-10T00:51:58.936Z,100.00
2022-09-10T00:54:28.339Z,100.00
2022-09-10T00:56:59.755Z,100.00
2022-09-10T00:59:28.013Z,100.00
2022-09-10T01:01:55.988Z,100.00
2022-09-10T01:04:23.072Z,100.00
2022-09-10T01:06:52.078Z,100.00
2022-09-10T01:09:21.425Z,100.00
2022-09-10T01:12:09.148Z,100.00
2022-09-10T01:15:05.163Z,100.00
2022-09-10T01:17:53.823Z,100.00
2022-09-10T01:20:35.835Z,100.00
2022-09-10T01:23:17.564Z,100.00
2022-09-10T01:26:25.325Z,100.00
2022-09-10T01:29:21.308Z,100.00
2022-09-10T01:32:12.458Z,100.00
2022-09-10T01:35:02.426Z,100.00
2022-09-10T01:37:37.147Z,100.00
2022-09-10T01:40:05.460Z,100.00
2022-09-10T01:42:32.692Z,100.00
2022-09-10T01:44:59.960Z,100.00
2022-09-10T01:47:45.020Z,100.00
2022-09-10T01:50:30.439Z,100.00
2022-09-10T01:53:11.449Z,100.00
2022-09-10T01:55:54.039Z,100.00
2022-09-10T01:58:29.354Z,100.00
2022-09-10T02:01:10.992Z,100.00
2022-09-10T02:03:40.167Z,100.00
2022-09-10T02:06:09.579Z,100.00
2022-09-10T02:08:40.025Z,100.00
2022-09-10T02:11:11.856Z,100.00
2022-09-10T02:13:39.286Z,100.00
2022-09-10T02:16:11.419Z,100.00
2022-09-10T02:18:40.128Z,100.00
2022-09-10T02:21:07.412Z,100.00
2022-09-10T02:23:44.416Z,100.00
2022-09-10T02:26:12.301Z,100.00
2022-09-10T02:28:39.103Z,100.00
2022-09-10T02:31:06.052Z,100.00
2022-09-10T02:33:32.764Z,100.00
2022-09-10T02:35:59.554Z,100.00
2022-09-10T02:38:26.528Z,100.00
2022-09-10T02:40:53.148Z,100.00
2022-09-10T02:43:20.211Z,100.00
2022-09-10T02:45:47.037Z,100.00
2022-09-10T02:48:13.724Z,100.00
2022-09-10T02:50:40.463Z,100.00
2022-09-10T02:53:07.296Z,100.00
2022-09-10T02:55:34.010Z,100.00
2022-09-10T02:58:00.687Z,100.00
2022-09-10T03:00:27.551Z,100.00
2022-09-10T03:03:00.909Z,100.00
2022-09-10T03:05:30.043Z,100.00
2022-09-10T03:07:57.244Z,100.00
2022-09-10T03:10:24.540Z,100.00
2022-09-10T03:12:52.253Z,100.00
2022-09-10T03:15:20.724Z,100.00
2022-09-10T03:17:47.624Z,100.00
2022-09-10T03:20:14.550Z,100.00
2022-09-10T03:22:41.368Z,100.00
2022-09-10T03:25:08.150Z,100.00
2022-09-10T03:27:35.216Z,100.00
2022-09-10T03:30:03.179Z,100.00
2022-09-10T03:32:32.114Z,100.00
2022-09-10T03:35:00.044Z,100.00
2022-09-10T03:37:26.901Z,100.00
2022-09-10T03:39:55.364Z,100.00
2022-09-10T03:42:22.131Z,100.00
2022-09-10T03:44:48.904Z,100.00
2022-09-10T03:47:15.684Z,100.00
2022-09-10T03:49:42.760Z,100.00
2022-09-10T03:52:12.768Z,100.00
2022-09-10T03:54:40.107Z,100.00
2022-09-10T03:57:06.790Z,100.00
2022-09-10T03:59:33.434Z,100.00
2022-09-10T04:02:00.228Z,100.00
2022-09-10T04:04:27.133Z,100.00
2022-09-10T04:06:54.069Z,100.00
2022-09-10T04:09:20.776Z,100.00
2022-09-10T04:11:47.546Z,100.00
2022-09-10T04:14:15.680Z,100.00
2022-09-10T04:16:42.447Z,100.00
2022-09-10T04:19:09.279Z,100.00
2022-09-10T04:21:35.964Z,100.00
2022-09-10T04:24:03.220Z,100.00
2022-09-10T04:26:30.030Z,100.00
2022-09-10T04:28:56.740Z,100.00
2022-09-10T04:31:23.499Z,100.00
2022-09-10T04:33:50.799Z,100.00
2022-09-10T04:36:17.604Z,100.00
2022-09-10T04:38:44.726Z,100.00
2022-09-10T04:41:12.273Z,100.00
2022-09-10T04:43:39.026Z,100.00
2022-09-10T04:46:05.812Z,100.00
2022-09-10T04:48:33.625Z,100.00
2022-09-10T04:51:15.690Z,100.00
2022-09-10T04:53:43.259Z,100.00
2022-09-10T04:56:10.254Z,100.00
2022-09-10T04:58:39.070Z,100.00
2022-09-10T05:01:07.149Z,100.00
2022-09-10T05:03:34.243Z,100.00
2022-09-10T05:06:01.056Z,100.00
2022-09-10T05:08:27.828Z,100.00
2022-09-10T05:10:54.566Z,100.00
2022-09-10T05:13:21.302Z,100.00
2022-09-10T05:15:48.089Z,100.00
2022-09-10T05:18:14.768Z,100.00
2022-09-10T05:20:43.566Z,100.00
2022-09-10T05:23:10.385Z,100.00
2022-09-10T05:25:37.749Z,100.00
2022-09-10T05:28:06.022Z,100.00
2022-09-10T05:30:33.162Z,100.00
2022-09-10T05:33:01.200Z,100.00
2022-09-10T05:35:29.141Z,100.00
2022-09-10T05:38:00.802Z,100.00
2022-09-10T05:40:28.958Z,100.00
2022-09-10T05:42:56.253Z,100.00
2022-09-10T05:45:23.638Z,100.00
2022-09-10T05:47:50.530Z,100.00
2022-09-10T05:50:17.908Z,100.00
2022-09-10T05:52:45.220Z,100.00
2022-09-10T05:55:12.479Z,100.00
2022-09-10T05:57:40.440Z,100.00
2022-09-10T06:00:10.963Z,100.00
2022-09-10T06:02:37.953Z,100.00
2022-09-10T06:05:05.134Z,100.00
2022-09-10T06:07:31.918Z,100.00
2022-09-10T06:09:58.644Z,100.00
2022-09-10T06:12:25.347Z,100.00
2022-09-10T06:14:52.828Z,100.00
2022-09-10T06:17:20.109Z,100.00
2022-09-10T06:19:47.077Z,100.00
2022-09-10T06:22:14.658Z,100.00
2022-09-10T06:24:41.426Z,100.00
2022-09-10T06:27:08.654Z,100.00
2022-09-10T06:29:36.896Z,100.00
2022-09-10T06:32:04.424Z,100.00
2022-09-10T06:34:31.513Z,100.00
2022-09-10T06:36:58.595Z,100.00
2022-09-10T06:39:25.311Z,100.00
2022-09-10T06:41:53.316Z,100.00
2022-09-10T06:44:22.469Z,100.00
2022-09-10T06:49:36.680Z,100.00
2022-09-10T06:52:03.690Z,100.00
2022-09-10T06:54:30.483Z,100.00
2022-09-10T06:56:58.192Z,100.00
2022-09-10T06:59:25.133Z,99.03
2022-09-10T07:01:51.965Z,100.00
2022-09-10T07:04:18.804Z,100.00
2022-09-10T07:06:46.768Z,93.49
2022-09-10T07:09:14.617Z,97.02
2022-09-10T07:11:41.999Z,95.91
2022-09-10T07:14:13.363Z,88.83
2022-09-10T07:16:44.805Z,90.60
2022-09-10T07:19:15.291Z,77.96
2022-09-10T07:21:42.174Z,76.03
2022-09-10T07:24:10.404Z,81.17
2022-09-10T07:26:37.055Z,73.77
2022-09-10T07:29:04.282Z,65.49
2022-09-10T07:31:34.098Z,60.84
2022-09-10T07:34:04.703Z,58.06
2022-09-10T07:36:31.834Z,57.67
2022-09-10T07:39:01.765Z,57.11
2022-09-10T07:41:30.053Z,59.38
2022-09-10T07:43:57.857Z,57.66
2022-09-10T07:46:25.915Z,54.19
2022-09-10T07:48:58.013Z,52.46
2022-09-10T07:51:26.519Z,52.46
2022-09-10T07:53:55.220Z,53.38
2022-09-10T07:56:25.876Z,53.07
2022-09-10T07:58:54.035Z,54.40
2022-09-10T08:01:21.609Z,53.06
2022-09-10T08:03:48.463Z,53.42
2022-09-10T08:06:16.022Z,55.19
2022-09-10T08:08:43.535Z,53.64
2022-09-10T08:11:16.712Z,53.58
2022-09-10T08:13:48.910Z,53.07
2022-09-10T08:16:26.958Z,54.45
2022-09-10T08:18:57.272Z,56.43
2022-09-10T08:21:25.142Z,53.13
2022-09-10T08:23:54.729Z,51.74
2022-09-10T08:26:23.809Z,51.30
2022-09-10T08:28:58.652Z,50.98
2022-09-10T08:31:26.652Z,51.54
2022-09-10T08:33:55.035Z,52.21
2022-09-10T08:36:24.532Z,51.52
2022-09-10T08:38:53.772Z,51.54
2022-09-10T08:41:41.090Z,51.84
2022-09-10T08:44:29.345Z,49.93
2022-09-10T08:47:20.162Z,50.43
2022-09-10T08:50:14.314Z,49.71
2022-09-10T08:52:57.164Z,47.95
2022-09-10T08:55:31.600Z,47.83
2022-09-10T08:58:04.750Z,47.94
2022-09-10T09:00:36.976Z,50.21
2022-09-10T09:03:25.301Z,48.01
2022-09-10T09:06:00.988Z,46.29
2022-09-10T09:08:34.804Z,46.58
2022-09-10T09:11:20.016Z,47.31
2022-09-10T09:14:08.747Z,47.16
2022-09-10T09:16:38.147Z,46.16
2022-09-10T09:19:17.270Z,47.59
2022-09-10T09:21:52.946Z,47.53
2022-09-10T09:24:57.918Z,46.23
2022-09-10T09:27:30.418Z,47.48
2022-09-10T09:30:02.874Z,46.93
2022-09-10T09:32:34.458Z,45.71
2022-09-10T09:35:25.744Z,45.63
2022-09-10T09:38:18.335Z,47.94
2022-09-10T09:40:51.681Z,47.99
2022-09-10T09:43:49.774Z,48.17
2022-09-10T09:46:21.415Z,47.76
2022-09-10T09:48:53.644Z,45.80
2022-09-10T09:51:21.270Z,46.34
2022-09-10T09:54:46.584Z,45.31
2022-09-10T09:57:00.093Z,46.47
2022-09-10T09:59:37.404Z,47.50
2022-09-10T10:02:20.346Z,46.82
2022-09-10T10:05:25.675Z,48.89
2022-09-10T10:07:52.838Z,48.79
2022-09-10T10:10:28.136Z,48.20
2022-09-10T10:12:55.673Z,48.60
2022-09-10T10:15:36.769Z,48.31
2022-09-10T10:18:35.884Z,48.46
2022-09-10T10:21:29.248Z,45.03
2022-09-10T10:23:55.979Z,45.54
2022-09-10T10:26:33.701Z,44.84
2022-09-10T10:29:15.646Z,47.41
2022-09-10T10:31:45.037Z,47.01
2022-09-10T10:34:37.516Z,45.20
2022-09-10T10:37:20.361Z,45.27
2022-09-10T10:40:03.795Z,44.80
2022-09-10T10:42:57.559Z,44.52
2022-09-10T10:45:43.613Z,43.74
2022-09-10T10:48:32.975Z,42.83
2022-09-10T10:51:20.013Z,44.48
2022-09-10T10:54:20.759Z,45.35
2022-09-10T10:57:10.406Z,46.19
2022-09-10T11:00:01.335Z,46.15
2022-09-10T11:02:36.473Z,45.34
2022-09-10T11:05:18.586Z,45.35
2022-09-10T11:07:46.763Z,44.89
2022-09-10T11:10:25.572Z,43.84
2022-09-10T11:13:24.674Z,42.29
2022-09-10T11:16:15.309Z,43.84
2022-09-10T11:18:47.675Z,43.48
2022-09-10T11:21:25.845Z,42.86
2022-09-10T11:23:56.654Z,41.72
2022-09-10T11:26:33.849Z,41.84
2022-09-10T11:29:45.862Z,41.75
2022-09-10T11:32:21.648Z,42.81
2022-09-10T11:35:01.899Z,43.72
2022-09-10T11:37:51.115Z,42.05
2022-09-10T11:40:28.846Z,41.58
2022-09-10T11:43:00.446Z,42.73
2022-09-10T11:45:43.435Z,42.66
2022-09-10T11:48:30.412Z,41.36
2022-09-10T11:51:12.750Z,41.64
2022-09-10T11:53:40.328Z,41.51
2022-09-10T11:56:22.925Z,41.91
2022-09-10T11:59:04.902Z,40.48
2022-09-10T12:01:55.110Z,40.84
2022-09-10T12:04:46.940Z,38.57
2022-09-10T12:07:17.629Z,37.54
2022-09-10T12:10:29.007Z,38.12
2022-09-10T12:12:55.773Z,38.10
2022-09-10T12:15:25.645Z,40.13
2022-09-10T12:17:59.883Z,39.33
2022-09-10T12:20:37.893Z,41.92
2022-09-10T12:23:06.109Z,41.79
2022-09-10T12:25:34.733Z,41.27
2022-09-10T12:28:07.772Z,41.41
2022-09-10T12:30:37.902Z,40.89
2022-09-10T12:33:13.553Z,41.04
2022-09-10T12:35:48.451Z,39.95
2022-09-10T12:38:43.231Z,39.25
2022-09-10T12:41:29.800Z,38.40
2022-09-10T12:44:00.391Z,38.25
2022-09-10T12:46:28.517Z,39.93
2022-09-10T12:48:58.276Z,39.14
2022-09-10T12:52:00.430Z,39.73
2022-09-10T12:54:41.356Z,39.67
2022-09-10T12:57:26.385Z,38.81
2022-09-10T13:00:02.295Z,38.27
2022-09-10T13:02:40.533Z,36.74
2022-09-10T13:05:19.356Z,36.20
2022-09-10T13:07:49.316Z,38.58
2022-09-10T13:10:27.014Z,39.91
2022-09-10T13:12:59.379Z,42.97
2022-09-10T13:15:30.126Z,44.51
2022-09-10T13:17:56.878Z,45.66
2022-09-10T13:20:26.319Z,45.89
2022-09-10T13:23:19.682Z,45.46
2022-09-10T13:25:48.228Z,39.47
2022-09-10T13:28:35.736Z,38.35
2022-09-10T13:31:05.143Z,37.88
2022-09-10T13:33:43.150Z,37.10
2022-09-10T13:36:24.431Z,40.26
2022-09-10T13:39:06.066Z,40.27
2022-09-10T13:42:02.190Z,38.60
2022-09-10T13:44:40.054Z,37.49
2022-09-10T13:47:15.213Z,36.30
2022-09-10T13:50:19.463Z,36.43
2022-09-10T13:52:49.407Z,33.56
2022-09-10T13:55:26.280Z,33.95
2022-09-10T13:57:56.629Z,34.10
2022-09-10T14:00:27.747Z,35.97
2022-09-10T14:02:57.323Z,36.87
2022-09-10T14:05:50.347Z,39.62
2022-09-10T14:08:26.690Z,41.34
2022-09-10T14:10:56.052Z,43.84
2022-09-10T14:13:29.984Z,42.24
2022-09-10T14:15:59.792Z,42.95
2022-09-10T14:18:37.663Z,41.61
2022-09-10T14:21:05.498Z,43.16
2022-09-10T14:23:32.567Z,42.28
2022-09-10T14:26:24.508Z,41.20
2022-09-10T14:28:54.636Z,42.02
2022-09-10T14:31:42.475Z,42.76
2022-09-10T14:34:33.789Z,42.52
2022-09-10T14:37:01.572Z,42.37
2022-09-10T14:39:28.547Z,43.09
2022-09-10T14:42:27.450Z,43.12
2022-09-10T14:44:54.504Z,43.41
2022-09-10T14:47:37.788Z,43.53
2022-09-10T14:50:28.668Z,43.95
2022-09-10T14:52:55.799Z,43.51
2022-09-10T14:55:24.217Z,43.73
2022-09-10T14:57:55.651Z,43.78
2022-09-10T15:00:23.737Z,44.67
2022-09-10T15:02:53.930Z,44.81
2022-09-10T15:05:20.803Z,45.14
2022-09-10T15:07:47.557Z,45.19
2022-09-10T15:10:14.546Z,45.22
2022-09-10T15:12:44.961Z,45.39
2022-09-10T15:15:17.565Z,45.55
2022-09-10T15:17:44.718Z,45.40
2022-09-10T15:20:17.026Z,45.46
2022-09-10T15:22:45.195Z,44.98
2022-09-10T15:25:38.713Z,45.07
2022-09-10T15:28:07.015Z,45.62
2022-09-10T15:30:35.889Z,45.79
2022-09-10T15:33:06.357Z,45.76
2022-09-10T15:35:33.134Z,46.97
2022-09-10T15:38:02.271Z,47.39
2022-09-10T15:40:29.058Z,46.84
2022-09-10T15:42:55.888Z,47.24
2022-09-10T15:45:22.627Z,47.62
2022-09-10T15:47:49.380Z,47.88
2022-09-10T15:50:17.035Z,48.19
2022-09-10T15:52:45.106Z,48.10
2022-09-10T15:55:12.543Z,48.77
2022-09-10T15:57:40.466Z,49.87
2022-09-10T16:00:08.174Z,49.91
2022-09-10T16:02:35.004Z,51.03
2022-09-10T16:05:01.727Z,51.11
2022-09-10T16:07:29.890Z,51.92
2022-09-10T16:09:58.881Z,52.65
2022-09-10T16:12:28.657Z,53.10
2022-09-10T16:14:55.568Z,53.80
2022-09-10T16:17:22.277Z,54.05
2022-09-10T16:19:49.840Z,55.14
2022-09-10T16:22:20.438Z,55.37
2022-09-10T16:24:47.713Z,55.76
2022-09-10T16:27:16.342Z,55.85
2022-09-10T16:29:47.416Z,55.94
2022-09-10T16:32:14.149Z,56.75
2022-09-10T16:34:41.104Z,56.07
2022-09-10T16:37:08.724Z,56.65
2022-09-10T16:39:35.430Z,57.92
2022-09-10T16:42:02.259Z,57.54
2022-09-10T16:44:29.076Z,58.04
2022-09-10T16:46:57.804Z,58.99
2022-09-10T16:49:24.535Z,59.67
2022-09-10T16:51:51.170Z,58.73
2022-09-10T16:54:22.489Z,59.55
2022-09-10T16:56:49.380Z,61.87
2022-09-10T16:59:21.615Z,70.69
2022-09-10T17:01:49.613Z,79.62
2022-09-10T17:04:22.285Z,100.00
2022-09-10T17:06:51.487Z,100.00
2022-09-10T17:09:18.220Z,100.00
2022-09-10T17:11:44.927Z,100.00
2022-09-10T17:14:11.670Z,100.00
2022-09-10T17:16:43.645Z,100.00
2022-09-10T17:19:23.798Z,100.00
2022-09-10T17:21:55.201Z,100.00
2022-09-10T17:24:24.379Z,100.00
2022-09-10T17:26:52.090Z,100.00
2022-09-10T17:29:20.711Z,100.00
2022-09-10T17:31:47.703Z,100.00
2022-09-10T17:34:16.142Z,100.00
2022-09-10T17:36:45.484Z,100.00
2022-09-10T17:39:13.027Z,100.00
2022-09-10T17:41:40.875Z,100.00
2022-09-10T17:44:08.351Z,100.00
2022-09-10T17:46:36.288Z,100.00
2022-09-10T17:49:04.493Z,100.00
2022-09-10T17:51:34.199Z,100.00
2022-09-10T17:54:03.448Z,100.00
2022-09-10T17:56:31.111Z,100.00
2022-09-10T17:59:03.636Z,100.00
2022-09-10T18:01:40.286Z,100.00
2022-09-10T18:04:08.666Z,100.00
2022-09-10T18:06:37.029Z,100.00
2022-09-10T18:09:05.241Z,100.00
2022-09-10T18:11:37.018Z,100.00
2022-09-10T18:14:04.422Z,100.00
2022-09-10T18:16:33.933Z,100.00
2022-09-10T18:19:14.533Z,100.00
2022-09-10T18:21:42.126Z,100.00
2022-09-10T18:24:14.874Z,100.00
2022-09-10T18:26:44.446Z,100.00
2022-09-10T18:29:24.610Z,100.00
2022-09-10T18:31:54.044Z,100.00
2022-09-10T18:34:24.222Z,100.00
2022-09-10T18:36:54.727Z,100.00
2022-09-10T18:39:23.284Z,100.00
2022-09-10T18:41:50.607Z,100.00
2022-09-10T18:44:21.900Z,100.00
2022-09-10T18:46:50.647Z,100.00
2022-09-10T18:49:21.165Z,100.00
2022-09-10T18:51:48.817Z,100.00
2022-09-10T18:54:18.486Z,100.00
2022-09-10T18:56:48.207Z,100.00
2022-09-10T18:59:20.303Z,100.00
2022-09-10T19:01:50.766Z,100.00
2022-09-10T19:04:24.413Z,100.00
2022-09-10T19:06:56.112Z,100.00
2022-09-10T19:09:28.200Z,100.00
2022-09-10T19:11:57.222Z,100.00
2022-09-10T19:14:26.462Z,100.00
2022-09-10T19:16:55.001Z,100.00
2022-09-10T19:19:23.554Z,100.00
2022-09-10T19:21:56.008Z,100.00
2022-09-10T19:24:53.640Z,100.00
2022-09-10T19:27:19.792Z,100.00
2022-09-10T19:29:47.437Z,100.00
2022-09-10T19:32:15.260Z,100.00
2022-09-10T19:34:42.237Z,100.00
2022-09-10T19:37:09.850Z,100.00
2022-09-10T19:39:36.555Z,100.00
2022-09-10T19:42:05.423Z,100.00
2022-09-10T19:44:33.694Z,100.00
2022-09-10T19:47:00.531Z,100.00
2022-09-10T19:49:27.328Z,100.00
2022-09-10T19:51:54.169Z,100.00
2022-09-10T19:54:22.829Z,100.00
2022-09-10T19:56:49.961Z,100.00
2022-09-10T19:59:17.168Z,100.00
2022-09-10T20:01:46.159Z,100.00
2022-09-10T20:04:14.322Z,100.00
2022-09-10T20:06:42.743Z,100.00
2022-09-10T20:09:10.282Z,100.00
2022-09-10T20:11:37.939Z,100.00
2022-09-10T20:14:10.749Z,100.00
2022-09-10T20:16:38.914Z,100.00
2022-09-10T20:19:06.686Z,100.00
2022-09-10T20:21:35.453Z,100.00
2022-09-10T20:24:02.217Z,100.00
2022-09-10T20:26:33.866Z,100.00
2022-09-10T20:29:04.289Z,100.00
2022-09-10T20:31:33.621Z,100.00
2022-09-10T20:34:03.665Z,100.00
2022-09-10T20:36:31.658Z,100.00
2022-09-10T20:38:58.638Z,100.00
2022-09-10T20:41:30.395Z,100.00
2022-09-10T20:43:59.463Z,100.00
2022-09-10T20:46:28.229Z,100.00
2022-09-10T20:48:56.976Z,100.00
2022-09-10T20:51:23.826Z,100.00
2022-09-10T20:53:50.575Z,100.00
2022-09-10T20:56:19.390Z,100.00
2022-09-10T20:58:47.313Z,100.00
2022-09-10T21:01:19.919Z,100.00
2022-09-10T21:03:48.712Z,100.00
2022-09-10T21:06:19.680Z,100.00
2022-09-10T21:08:48.028Z,100.00
2022-09-10T21:11:17.766Z,100.00
2022-09-10T21:13:47.035Z,100.00
2022-09-10T21:16:16.478Z,100.00
2022-09-10T21:18:52.096Z,100.00
2022-09-10T21:21:22.848Z,100.00
2022-09-10T21:23:51.599Z,100.00
2022-09-10T21:26:20.851Z,100.00
2022-09-10T21:28:48.283Z,100.00
2022-09-10T21:31:15.144Z,100.00
2022-09-10T21:33:42.935Z,100.00
2022-09-10T21:36:15.722Z,100.00
2022-09-10T21:38:46.690Z,100.00
2022-09-10T21:41:16.115Z,100.00
2022-09-10T21:43:45.386Z,100.00
2022-09-10T21:46:13.683Z,100.00
2022-09-10T21:48:42.577Z,100.00
2022-09-10T21:51:15.139Z,100.00
2022-09-10T21:53:43.238Z,100.00
2022-09-10T21:56:15.919Z,100.00
2022-09-10T21:58:44.845Z,100.00
2022-09-10T22:01:13.461Z,100.00
2022-09-10T22:03:40.468Z,100.00
2022-09-10T22:06:14.793Z,100.00
2022-09-10T22:08:44.258Z,100.00
2022-09-10T22:11:18.980Z,100.00
2022-09-10T22:13:52.066Z,100.00
2022-09-10T22:16:20.009Z,100.00
2022-09-10T22:18:47.104Z,100.00
2022-09-10T22:21:13.949Z,100.00
2022-09-10T22:23:40.788Z,100.00
2022-09-10T22:26:16.327Z,100.00
2022-09-10T22:28:43.868Z,100.00
2022-09-10T22:31:15.453Z,100.00
2022-09-10T22:33:44.384Z,100.00
2022-09-10T22:36:13.663Z,100.00
2022-09-10T22:38:41.840Z,100.00
2022-09-10T22:41:10.496Z,100.00
2022-09-10T22:43:38.632Z,100.00
2022-09-10T22:46:09.080Z,100.00
2022-09-10T22:48:40.352Z,100.00
2022-09-10T22:51:09.545Z,100.00
2022-09-10T22:53:36.220Z,100.00
2022-09-10T22:56:03.090Z,100.00
2022-09-10T22:58:31.211Z,100.00
2022-09-10T23:01:04.256Z,100.00
2022-09-10T23:03:31.236Z,100.00
2022-09-10T23:06:08.537Z,100.00
2022-09-10T23:08:44.379Z,100.00
2022-09-10T23:11:16.639Z,100.00
2022-09-10T23:13:47.221Z,100.00
2022-09-10T23:16:15.654Z,100.00
2022-09-10T23:18:43.976Z,100.00
2022-09-10T23:21:10.990Z,100.00
2022-09-10T23:23:37.832Z,100.00
2022-09-10T23:26:09.957Z,100.00
2022-09-10T23:28:37.212Z,100.00
2022-09-10T23:31:14.266Z,100.00
2022-09-10T23:33:43.245Z,100.00
2022-09-10T23:36:14.351Z,100.00
2022-09-10T23:38:43.114Z,100.00
2022-09-10T23:41:17.809Z,100.00
2022-09-10T23:43:45.519Z,100.00
2022-09-10T23:46:12.775Z,100.00
2022-09-10T23:48:40.127Z,100.00
2022-09-10T23:51:07.041Z,100.00
2022-09-10T23:53:33.746Z,100.00
2022-09-10T23:56:02.922Z,100.00
2022-09-10T23:58:30.174Z,100.00
